Station: Kuitpo

  Atmospheric Gas Attenuation - ITU Rec 676-11   --------------- db/100km ---------------
Date Time Temp RH % AH g/m3 Dew Point Wind Direction Speed kph Gust kph Barometer mB Rainfall Since 9am 24GHz 47GHz 76GHz 122GHz 134GHz 241GHz
24 18:20 36.8 11 4.78 1.5 17 20 1001 0 10.8 15.5 19.2 49.9 38.7 131.2
24 18:10 37.3 11 4.9 1.9 15 19 1001 0 11.0 15.6 19.4 50.4 39.4 134.0
24 18:00 37.1 11 4.85 1.8 19 26 1000.9 0 10.9 15.6 19.3 50.2 39.1 132.8
24 17:50 37.4 10 4.48 0.7 20 26 1001 0 10.2 15.1 18.3 47.5 35.9 121.5
24 17:40 36.9 12 5.24 2.8 20 26 1001.1 0 11.7 16.0 20.4 53.0 42.5 144.9
24 17:30 36 13 5.42 3.3 19 28 1001.1 0 12.1 16.4 21.1 54.8 44.5 151.9
24 17:20 36.7 14 6.05 4.9 19 26 1001.2 0 13.4 16.9 22.6 58.9 49.7 170.1
24 17:10 37.3 13 5.79 4.3 19 26 1001.3 0 12.8 16.5 21.7 56.6 47.1 161.0
24 17:00 38.7 9 4.31 0.2 19 30 1001.2 0 9.8 14.8 17.6 45.7 34.0 114.9
24 16:50 38 9 4.15 -0.3 15 20 1001.5 0 9.5 14.7 17.4 45.0 33.0 111.2
24 16:40 37.8 9 4.11 -0.5 20 28 1001.7 0 9.4 14.7 17.3 44.9 32.7 110.3
24 16:30 38 9 4.15 -0.3 22 37 1001.6 0 9.5 14.7 17.4 45.1 33.0 111.2
24 16:20 39.5 9 4.48 0.8 20 26 1001.8 0 10.1 14.8 17.9 46.5 35.1 118.8
24 16:10 38.6 9 4.28 0.1 26 32 1002 0 9.7 14.8 17.6 45.6 33.8 114.2
24 16:00 37.4 9 4.03 -0.8 24 43 1002.2 0 9.3 14.7 17.2 44.6 32.2 108.6
24 15:50 37.9 9 4.13 -0.4 22 30 1002.2 0 9.5 14.7 17.4 45.0 32.9 110.8
24 15:40 39.8 9 4.55 1 22 37 1002.3 0 10.3 14.9 18.0 46.8 35.5 120.4
24 15:30 38.6 9 4.28 0.1 24 37 1002.4 0 9.7 14.8 17.6 45.6 33.8 114.3
24 15:20 37.9 9 4.13 -0.4 22 30 1002.6 0 9.5 14.7 17.4 45.0 32.9 110.9
24 15:10 38.2 10 4.66 1.3 22 30 1002.8 0 10.5 15.3 18.7 48.4 37.1 125.9
24 15:00 37.7 9 4.09 -0.6 19 41 1002.9 0 9.4 14.7 17.4 44.9 32.6 110.0
24 14:50 37.7 10 4.55 0.9 15 19 1003.1 0 10.3 15.2 18.5 48.0 36.4 123.4
24 14:40 37.4 10 4.48 0.7 20 37 1003.3 0 10.2 15.2 18.4 47.7 36.0 121.8
24 14:30 37.4 9 4.03 -0.8 26 39 1003.3 0 9.3 14.7 17.3 44.7 32.3 108.7
24 14:20 37.9 9 4.13 -0.4 26 33 1003.5 0 9.5 14.8 17.4 45.1 32.9 111.0
24 14:10 39.3 9 4.44 0.6 19 26 1003.5 0 10.1 14.9 17.9 46.4 34.9 118.1
24 14:00 38.4 9 4.24 0 26 44 1003.5 0 9.7 14.8 17.6 45.5 33.6 113.5
24 13:50 38.7 9 4.31 0.2 26 33 1003.8 0 9.8 14.8 17.7 45.9 34.1 115.2
24 13:40 37.9 9 4.13 -0.4 28 35 1003.8 0 9.5 14.8 17.4 45.1 32.9 111.0
24 13:30 37.9 9 4.13 -0.4 30 48 1003.8 0 9.5 14.8 17.4 45.1 32.9 111.0
24 13:20 39 8 3.89 -1.2 24 33 1004 0 8.9 14.4 16.6 43.0 30.6 102.9
24 13:10 39 8 3.89 -1.2 17 28 1004.1 0 8.9 14.4 16.6 43.0 30.6 102.9
24 13:00 38.7 9 4.31 0.2 26 41 1004.1 0 9.8 14.9 17.7 45.9 34.1 115.2
24 12:50 38.3 8 3.75 -1.7 28 35 1004.3 0 8.7 14.4 16.4 42.4 29.7 99.8
24 12:40 38.2 8 3.73 -1.8 26 43 1004.3 0 8.6 14.3 16.4 42.4 29.6 99.3
24 12:30 39.2 8 3.92 -1.1 20 46 1004.2 0 9.0 14.4 16.7 43.1 30.8 103.5
24 12:20 39 8 3.89 -1.2 26 37 1004.4 0 9.0 14.4 16.7 43.0 30.6 102.9
24 12:10 38.6 8 3.81 -1.5 30 37 1004.5 0 8.8 14.4 16.5 42.7 30.1 101.1
24 12:00 39.1 8 3.91 -1.1 20 44 1004.5 0 9.0 14.4 16.7 43.1 30.7 103.4
24 11:50 37.2 8 3.55 -2.5 28 46 1004.7 0 8.3 14.3 16.2 41.7 28.5 95.3
24 11:40 38 8 3.69 -1.9 26 35 1004.7 0 8.6 14.3 16.4 42.2 29.4 98.4
24 11:30 37.9 9 4.13 -0.4 11 22 1004.8 0 9.5 14.8 17.5 45.2 32.9 111.1
24 11:20 36.3 10 4.23 -0.2 7 9 1004.9 0 9.7 15.1 18.0 46.7 34.4 116.1
24 11:10 35.4 12 4.85 1.7 11 15 1005 0 11.0 15.9 19.8 51.4 40.0 135.9
24 11:00 34.5 13 5.01 2.1 13 24 1005 0 11.3 16.3 20.4 53.1 41.9 142.3
24 10:50 34 13 4.88 1.7 17 20 1005 0 11.1 16.2 20.2 52.5 41.0 139.1
24 10:40 33.3 12 4.34 0.1 19 20 1005.1 0 10.0 15.7 18.9 49.1 36.6 123.5
24 10:30 32.9 13 4.61 0.9 13 24 1005.1 0 10.6 16.1 19.7 51.2 39.1 132.4
24 10:20 32.4 14 4.83 1.5 17 22 1005.1 0 11.0 16.4 20.5 53.1 41.3 140.1
24 10:10 32.1 14 4.75 1.3 17 26 1005.1 0 10.9 16.4 20.3 52.7 40.7 138.0
24 10:00 31.8 15 5.01 2 15 33 1005.2 0 11.4 16.7 21.1 54.8 43.2 146.8
24 09:50 31.7 15 4.99 1.9 19 24 1005.2 0 11.4 16.7 21.1 54.7 43.1 146.3
24 09:40 31.4 16 5.23 2.6 17 20 1005.3 0 11.9 17.0 21.8 56.7 45.4 154.6
24 09:30 31.1 17 5.47 3.2 15 30 1005.4 0 12.4 17.4 22.6 58.7 47.8 163.0
24 09:20 30.7 17 5.35 2.9 15 19 1005.4 0 12.1 17.3 22.3 58.1 46.9 159.8
24 09:10 30.3 19 5.86 4.1 15 20 1005.4 0 13.2 18.0 23.9 62.2 52.0 177.5
24 09:00 30 19 5.76 3.9 19 30 1005.5 0 13.0 17.9 23.7 61.7 51.2 174.8
24 08:50 29.7 19 5.67 3.6 19 24 1005.5 0 12.8 17.9 23.5 61.2 50.5 172.4
24 08:40 29.3 20 5.84 4 19 24 1005.5 0 13.2 18.1 24.1 62.8 52.4 179.0
24 08:30 29 21 6.03 4.5 22 35 1005.4 0 13.6 18.4 24.7 64.5 54.4 186.1
24 08:20 28.6 21 5.9 4.2 22 30 1005.4 0 13.3 18.3 24.5 63.8 53.4 182.5
24 08:10 28.3 22 6.08 4.6 22 30 1005.4 0 13.7 18.6 25.1 65.5 55.4 189.4
24 08:00 28.1 22 6.02 4.4 24 39 1005.2 0 13.6 18.6 25.0 65.1 54.9 187.7
24 07:50 28.2 22 6.05 4.5 24 32 1005.2 0 13.7 18.6 25.0 65.3 55.2 188.5
24 07:40 27.4 24 6.32 5.1 22 33 1005.1 0 14.2 19.1 26.1 68.1 58.4 199.8
24 07:30 26.8 24 6.11 4.6 28 41 1005 0 13.8 18.9 25.6 66.9 56.7 193.8
24 07:20 27 24 6.18 4.7 26 39 1004.9 0 14.0 19.0 25.8 67.3 57.2 195.8
24 07:10 26.6 25 6.29 5 28 35 1004.9 0 14.2 19.2 26.2 68.5 58.6 200.6
24 07:00 26.4 25 6.22 4.8 28 43 1004.9 0 14.1 19.2 26.1 68.1 58.1 198.6
24 06:50 26.3 25 6.19 4.7 30 43 1004.9 0 14.0 19.1 26.0 67.9 57.8 197.7
24 06:40 26.2 26 6.4 5.2 26 39 1004.9 0 14.5 19.4 26.7 69.7 60.1 205.5
24 06:30 26.4 25 6.22 4.8 24 39 1004.9 0 14.1 19.2 26.1 68.1 58.1 198.6
24 06:20 26.3 26 6.44 5.3 26 33 1004.9 0 14.5 19.4 26.8 70.0 60.4 206.7
24 06:10 26.4 26 6.47 5.4 26 35 1004.9 0 14.6 19.5 26.9 70.1 60.6 207.6
24 06:00 26.4 26 6.47 5.4 28 41 1004.8 0 14.6 19.5 26.8 70.1 60.6 207.5
24 05:50 26 27 6.57 5.6 24 35 1004.9 0 14.8 19.7 27.3 71.3 62.0 212.2
24 05:40 25.9 28 6.78 6 22 30 1004.9 0 15.3 20.0 28.0 73.2 64.2 220.1
24 05:30 26.1 28 6.85 6.2 22 35 1004.8 0 15.4 20.0 28.1 73.6 64.8 222.1
24 05:20 26.4 27 6.72 5.9 20 28 1004.8 0 15.1 19.8 27.6 72.2 63.2 216.6
24 04:50 26.5 27 6.76 6 26 32 1004.8 0 15.2 19.8 27.7 72.5 63.5 217.8
24 04:40 26.6 27 6.8 6.1 26 39 1004.8 0 15.3 19.8 27.8 72.7 63.9 219.0
24 04:30 26.5 28 7.01 6.5 28 43 1004.9 0 15.7 20.1 28.5 74.6 66.1 227.0
24 04:20 26.3 28 6.93 6.3 26 39 1005 0 15.5 20.1 28.3 74.1 65.5 224.6
24 04:10 26.2 28 6.89 6.3 28 35 1005 0 15.5 20.0 28.2 73.8 65.1 223.4
24 04:00 26 29 7.06 6.6 22 35 1005.1 0 15.8 20.3 28.9 75.5 67.1 230.2
24 03:50 26 29 7.06 6.6 20 32 1005.2 0 15.8 20.3 28.9 75.5 67.1 230.2
24 03:40 26.2 28 6.89 6.3 19 24 1005.2 0 15.5 20.1 28.2 73.9 65.1 223.4
24 03:30 26.2 29 7.14 6.8 20 30 1005.3 0 16.0 20.4 29.0 76.0 67.8 232.7
24 03:20 26.3 28 6.93 6.3 22 28 1005.4 0 15.5 20.1 28.3 74.1 65.5 224.7
24 03:10 26.4 28 6.97 6.4 22 26 1005.5 0 15.6 20.1 28.4 74.4 65.8 225.9
24 03:00 26.5 28 7.01 6.5 22 32 1005.7 0 15.7 20.2 28.5 74.6 66.2 227.1
24 02:50 26.4 28 6.97 6.4 20 28 1005.8 0 15.6 20.1 28.5 74.4 65.9 225.9
24 02:40 26.5 28 7.01 6.5 19 20 1006 0 15.7 20.2 28.6 74.7 66.2 227.2
24 02:30 26.5 28 7.01 6.5 19 30 1006 0 15.7 20.2 28.6 74.7 66.2 227.2
24 02:20 26.7 28 7.09 6.7 19 24 1006.3 0 15.9 20.2 28.7 75.2 66.9 229.6
24 02:10 26.6 28 7.05 6.6 17 22 1006.4 0 15.8 20.2 28.7 75.0 66.6 228.5
24 02:00 26.4 28 6.97 6.4 17 26 1006.3 0 15.6 20.2 28.5 74.4 65.9 226.0
24 01:50 26.4 28 6.97 6.4 15 17 1006.4 0 15.6 20.2 28.5 74.5 65.9 226.1
24 01:40 26.5 28 7.01 6.5 17 20 1006.5 0 15.7 20.2 28.6 74.7 66.2 227.3
24 01:30 26.7 28 7.09 6.7 19 28 1006.4 0 15.9 20.2 28.8 75.2 66.9 229.6

Last Refresh: 24-Jan-2021 18:32:24

Most of the information presented on this site is sourced from the Bureau of Meteorology.  Copyright in all material sourced from the Bureau of Meteorology resides with the Commonwealth of Australia.